sensor_id;sensor_type;location;lat;lon;timestamp;temperature;humidity
5055;DHT22;13829;48.990;8.346;2023-07-31T00:01:59;17.20;99.90
5055;DHT22;13829;48.990;8.346;2023-07-31T00:04:26;17.20;99.90
5055;DHT22;13829;48.990;8.346;2023-07-31T00:06:53;17.30;99.90
5055;DHT22;13829;48.990;8.346;2023-07-31T00:09:20;17.30;99.90
5055;DHT22;13829;48.990;8.346;2023-07-31T00:11:47;17.50;99.90
5055;DHT22;13829;48.990;8.346;2023-07-31T00:14:14;17.40;99.90
5055;DHT22;13829;48.990;8.346;2023-07-31T00:16:42;17.40;99.90
5055;DHT22;13829;48.990;8.346;2023-07-31T00:19:09;17.30;99.90
5055;DHT22;13829;48.990;8.346;2023-07-31T00:21:36;17.30;99.90
5055;DHT22;13829;48.990;8.346;2023-07-31T00:24:03;17.30;99.90
5055;DHT22;13829;48.990;8.346;2023-07-31T00:26:31;17.30;99.90
5055;DHT22;13829;48.990;8.346;2023-07-31T00:28:58;17.20;99.90
5055;DHT22;13829;48.990;8.346;2023-07-31T00:31:24;17.20;99.90
5055;DHT22;13829;48.990;8.346;2023-07-31T00:33:53;17.20;99.90
5055;DHT22;13829;48.990;8.346;2023-07-31T00:36:20;17.20;99.90
5055;DHT22;13829;48.990;8.346;2023-07-31T00:38:47;17.20;99.90
5055;DHT22;13829;48.990;8.346;2023-07-31T00:41:14;17.20;99.90
5055;DHT22;13829;48.990;8.346;2023-07-31T00:43:41;17.20;99.90
5055;DHT22;13829;48.990;8.346;2023-07-31T00:46:08;17.10;99.90
5055;DHT22;13829;48.990;8.346;2023-07-31T00:48:35;17.20;99.90
5055;DHT22;13829;48.990;8.346;2023-07-31T00:51:05;17.10;99.90
5055;DHT22;13829;48.990;8.346;2023-07-31T00:53:34;17.10;99.90
5055;DHT22;13829;48.990;8.346;2023-07-31T00:56:02;17.10;99.90
5055;DHT22;13829;48.990;8.346;2023-07-31T00:58:30;17.10;99.90
5055;DHT22;13829;48.990;8.346;2023-07-31T01:00:57;17.10;99.90
5055;DHT22;13829;48.990;8.346;2023-07-31T01:03:24;17.00;99.90
5055;DHT22;13829;48.990;8.346;2023-07-31T01:05:59;16.90;99.90
5055;DHT22;13829;48.990;8.346;2023-07-31T01:08:42;16.80;99.90
5055;DHT22;13829;48.990;8.346;2023-07-31T01:11:24;16.80;99.90
5055;DHT22;13829;48.990;8.346;2023-07-31T01:13:54;16.70;99.90
5055;DHT22;13829;48.990;8.346;2023-07-31T01:16:21;16.70;99.90
5055;DHT22;13829;48.990;8.346;2023-07-31T01:18:49;16.70;99.90
5055;DHT22;13829;48.990;8.346;2023-07-31T01:21:41;16.70;99.90
5055;DHT22;13829;48.990;8.346;2023-07-31T01:24:29;16.60;99.90
5055;DHT22;13829;48.990;8.346;2023-07-31T01:27:06;16.60;99.90
5055;DHT22;13829;48.990;8.346;2023-07-31T01:29:43;16.60;99.90
5055;DHT22;13829;48.990;8.346;2023-07-31T01:32:18;16.60;99.90
5055;DHT22;13829;48.990;8.346;2023-07-31T01:34:47;16.60;99.90
5055;DHT22;13829;48.990;8.346;2023-07-31T01:37:15;16.50;99.90
5055;DHT22;13829;48.990;8.346;2023-07-31T01:39:42;16.50;99.90
5055;DHT22;13829;48.990;8.346;2023-07-31T01:42:10;16.60;99.90
5055;DHT22;13829;48.990;8.346;2023-07-31T01:44:37;16.60;99.90
5055;DHT22;13829;48.990;8.346;2023-07-31T01:47:05;16.60;99.90
5055;DHT22;13829;48.990;8.346;2023-07-31T01:49:32;16.60;99.90
5055;DHT22;13829;48.990;8.346;2023-07-31T01:51:59;16.50;99.90
5055;DHT22;13829;48.990;8.346;2023-07-31T01:54:26;16.60;99.90
5055;DHT22;13829;48.990;8.346;2023-07-31T01:56:53;16.60;99.90
5055;DHT22;13829;48.990;8.346;2023-07-31T01:59:21;16.60;99.90
5055;DHT22;13829;48.990;8.346;2023-07-31T02:01:48;16.60;99.90
5055;DHT22;13829;48.990;8.346;2023-07-31T02:04:15;16.60;99.90
5055;DHT22;13829;48.990;8.346;2023-07-31T02:06:43;16.60;99.90
5055;DHT22;13829;48.990;8.346;2023-07-31T02:09:10;16.60;99.90
5055;DHT22;13829;48.990;8.346;2023-07-31T02:11:37;16.50;99.90
5055;DHT22;13829;48.990;8.346;2023-07-31T02:14:04;16.50;99.90
5055;DHT22;13829;48.990;8.346;2023-07-31T02:16:32;16.40;99.90
5055;DHT22;13829;48.990;8.346;2023-07-31T02:18:59;16.40;99.90
5055;DHT22;13829;48.990;8.346;2023-07-31T02:21:26;16.40;99.90
5055;DHT22;13829;48.990;8.346;2023-07-31T02:23:53;16.40;99.90
5055;DHT22;13829;48.990;8.346;2023-07-31T02:26:19;16.40;99.90
5055;DHT22;13829;48.990;8.346;2023-07-31T02:28:46;16.40;99.90
5055;DHT22;13829;48.990;8.346;2023-07-31T02:31:13;16.50;99.90
5055;DHT22;13829;48.990;8.346;2023-07-31T02:33:41;16.50;99.90
5055;DHT22;13829;48.990;8.346;2023-07-31T02:36:08;16.50;99.90
5055;DHT22;13829;48.990;8.346;2023-07-31T02:38:35;16.60;99.90
5055;DHT22;13829;48.990;8.346;2023-07-31T02:41:02;16.50;99.90
5055;DHT22;13829;48.990;8.346;2023-07-31T02:43:29;16.50;99.90
5055;DHT22;13829;48.990;8.346;2023-07-31T02:45:56;16.50;99.90
5055;DHT22;13829;48.990;8.346;2023-07-31T02:48:23;16.40;99.90
5055;DHT22;13829;48.990;8.346;2023-07-31T02:50:51;16.40;99.90
5055;DHT22;13829;48.990;8.346;2023-07-31T02:53:18;16.40;99.90
5055;DHT22;13829;48.990;8.346;2023-07-31T02:55:45;16.40;99.90
5055;DHT22;13829;48.990;8.346;2023-07-31T02:58:12;16.30;99.90
5055;DHT22;13829;48.990;8.346;2023-07-31T03:00:42;16.30;99.90
5055;DHT22;13829;48.990;8.346;2023-07-31T03:03:09;16.40;99.90
5055;DHT22;13829;48.990;8.346;2023-07-31T03:05:36;16.40;99.90
5055;DHT22;13829;48.990;8.346;2023-07-31T03:08:04;16.40;99.90
5055;DHT22;13829;48.990;8.346;2023-07-31T03:10:31;16.40;99.90
5055;DHT22;13829;48.990;8.346;2023-07-31T03:12:58;16.30;99.90
5055;DHT22;13829;48.990;8.346;2023-07-31T03:15:25;16.40;99.90
5055;DHT22;13829;48.990;8.346;2023-07-31T03:17:51;16.40;99.90
5055;DHT22;13829;48.990;8.346;2023-07-31T03:20:18;16.40;99.90
5055;DHT22;13829;48.990;8.346;2023-07-31T03:22:45;16.50;99.90
5055;DHT22;13829;48.990;8.346;2023-07-31T03:25:14;16.40;99.90
5055;DHT22;13829;48.990;8.346;2023-07-31T03:27:41;16.50;99.90
5055;DHT22;13829;48.990;8.346;2023-07-31T03:30:08;16.40;99.90
5055;DHT22;13829;48.990;8.346;2023-07-31T03:32:35;16.30;99.90
5055;DHT22;13829;48.990;8.346;2023-07-31T03:35:02;16.40;99.90
5055;DHT22;13829;48.990;8.346;2023-07-31T03:37:31;16.40;99.90
5055;DHT22;13829;48.990;8.346;2023-07-31T03:39:57;16.30;99.90
5055;DHT22;13829;48.990;8.346;2023-07-31T03:42:26;16.30;99.90
5055;DHT22;13829;48.990;8.346;2023-07-31T03:44:53;16.30;99.90
5055;DHT22;13829;48.990;8.346;2023-07-31T03:47:19;16.40;99.90
5055;DHT22;13829;48.990;8.346;2023-07-31T03:49:46;16.30;99.90
5055;DHT22;13829;48.990;8.346;2023-07-31T03:52:13;16.30;99.90
5055;DHT22;13829;48.990;8.346;2023-07-31T03:54:40;16.30;99.90
5055;DHT22;13829;48.990;8.346;2023-07-31T03:57:09;16.40;99.90
5055;DHT22;13829;48.990;8.346;2023-07-31T03:59:38;16.40;99.90
5055;DHT22;13829;48.990;8.346;2023-07-31T04:02:05;16.40;99.90
5055;DHT22;13829;48.990;8.346;2023-07-31T04:04:32;16.40;99.90
5055;DHT22;13829;48.990;8.346;2023-07-31T04:06:59;16.40;99.90
5055;DHT22;13829;48.990;8.346;2023-07-31T04:09:26;16.50;99.90
5055;DHT22;13829;48.990;8.346;2023-07-31T04:11:52;16.70;99.90
5055;DHT22;13829;48.990;8.346;2023-07-31T04:14:19;16.50;99.90
5055;DHT22;13829;48.990;8.346;2023-07-31T04:16:48;16.60;99.90
5055;DHT22;13829;48.990;8.346;2023-07-31T04:19:15;16.70;99.90
5055;DHT22;13829;48.990;8.346;2023-07-31T04:21:42;16.70;99.90
5055;DHT22;13829;48.990;8.346;2023-07-31T04:24:09;16.80;99.90
5055;DHT22;13829;48.990;8.346;2023-07-31T04:26:36;16.80;99.90
5055;DHT22;13829;48.990;8.346;2023-07-31T04:29:03;16.90;99.90
5055;DHT22;13829;48.990;8.346;2023-07-31T04:31:29;16.90;99.90
5055;DHT22;13829;48.990;8.346;2023-07-31T04:33:58;16.90;99.90
5055;DHT22;13829;48.990;8.346;2023-07-31T04:36:25;17.00;99.90
5055;DHT22;13829;48.990;8.346;2023-07-31T04:38:52;17.10;99.90
5055;DHT22;13829;48.990;8.346;2023-07-31T04:41:18;17.10;99.90
5055;DHT22;13829;48.990;8.346;2023-07-31T04:43:45;17.20;99.90
5055;DHT22;13829;48.990;8.346;2023-07-31T04:46:12;17.20;99.90
5055;DHT22;13829;48.990;8.346;2023-07-31T04:48:39;17.20;99.90
5055;DHT22;13829;48.990;8.346;2023-07-31T04:51:07;17.20;99.90
5055;DHT22;13829;48.990;8.346;2023-07-31T04:53:35;17.20;99.90
5055;DHT22;13829;48.990;8.346;2023-07-31T04:56:02;17.30;99.90
5055;DHT22;13829;48.990;8.346;2023-07-31T04:58:29;17.30;99.90
5055;DHT22;13829;48.990;8.346;2023-07-31T05:00:56;17.30;99.90
5055;DHT22;13829;48.990;8.346;2023-07-31T05:03:23;17.40;99.90
5055;DHT22;13829;48.990;8.346;2023-07-31T05:05:50;17.50;99.90
5055;DHT22;13829;48.990;8.346;2023-07-31T05:08:18;17.70;99.90
5055;DHT22;13829;48.990;8.346;2023-07-31T05:10:45;17.60;99.90
5055;DHT22;13829;48.990;8.346;2023-07-31T05:13:12;17.60;99.90
5055;DHT22;13829;48.990;8.346;2023-07-31T05:15:41;17.70;99.90
5055;DHT22;13829;48.990;8.346;2023-07-31T05:18:08;17.80;99.90
5055;DHT22;13829;48.990;8.346;2023-07-31T05:20:34;18.00;99.90
5055;DHT22;13829;48.990;8.346;2023-07-31T05:23:02;18.20;99.90
5055;DHT22;13829;48.990;8.346;2023-07-31T05:25:30;18.40;99.90
5055;DHT22;13829;48.990;8.346;2023-07-31T05:27:57;18.50;99.90
5055;DHT22;13829;48.990;8.346;2023-07-31T05:30:24;18.60;99.90
5055;DHT22;13829;48.990;8.346;2023-07-31T05:32:51;18.70;99.90
5055;DHT22;13829;48.990;8.346;2023-07-31T05:35:18;18.70;99.90
5055;DHT22;13829;48.990;8.346;2023-07-31T05:37:45;18.80;99.90
5055;DHT22;13829;48.990;8.346;2023-07-31T05:40:12;18.90;99.90
5055;DHT22;13829;48.990;8.346;2023-07-31T05:42:40;18.90;99.90
5055;DHT22;13829;48.990;8.346;2023-07-31T05:45:08;18.90;99.90
5055;DHT22;13829;48.990;8.346;2023-07-31T05:47:35;18.90;99.90
5055;DHT22;13829;48.990;8.346;2023-07-31T05:50:02;19.00;99.90
5055;DHT22;13829;48.990;8.346;2023-07-31T05:52:30;19.00;99.90
5055;DHT22;13829;48.990;8.346;2023-07-31T05:54:57;19.00;99.90
5055;DHT22;13829;48.990;8.346;2023-07-31T05:57:24;19.00;99.90
5055;DHT22;13829;48.990;8.346;2023-07-31T05:59:52;19.10;99.90
5055;DHT22;13829;48.990;8.346;2023-07-31T06:02:19;19.10;99.90
5055;DHT22;13829;48.990;8.346;2023-07-31T06:04:46;19.10;99.90
5055;DHT22;13829;48.990;8.346;2023-07-31T06:07:14;19.00;99.90
5055;DHT22;13829;48.990;8.346;2023-07-31T06:09:41;19.20;99.90
5055;DHT22;13829;48.990;8.346;2023-07-31T06:12:08;19.10;99.90
5055;DHT22;13829;48.990;8.346;2023-07-31T06:14:35;19.40;99.90
5055;DHT22;13829;48.990;8.346;2023-07-31T06:17:04;19.50;99.90
5055;DHT22;13829;48.990;8.346;2023-07-31T06:19:32;19.60;99.90
5055;DHT22;13829;48.990;8.346;2023-07-31T06:21:59;19.70;99.90
5055;DHT22;13829;48.990;8.346;2023-07-31T06:24:26;19.70;99.90
5055;DHT22;13829;48.990;8.346;2023-07-31T06:26:53;19.70;99.90
5055;DHT22;13829;48.990;8.346;2023-07-31T06:29:20;19.80;99.90
5055;DHT22;13829;48.990;8.346;2023-07-31T06:31:47;19.90;99.90
5055;DHT22;13829;48.990;8.346;2023-07-31T06:34:15;20.00;99.90
5055;DHT22;13829;48.990;8.346;2023-07-31T06:36:42;20.10;99.90
5055;DHT22;13829;48.990;8.346;2023-07-31T06:39:09;20.20;99.90
5055;DHT22;13829;48.990;8.346;2023-07-31T06:41:36;20.20;99.90
5055;DHT22;13829;48.990;8.346;2023-07-31T06:44:03;20.50;99.90
5055;DHT22;13829;48.990;8.346;2023-07-31T06:46:30;20.50;99.90
5055;DHT22;13829;48.990;8.346;2023-07-31T06:48:57;20.50;99.90
5055;DHT22;13829;48.990;8.346;2023-07-31T06:51:25;20.50;99.90
5055;DHT22;13829;48.990;8.346;2023-07-31T06:53:52;20.60;99.90
5055;DHT22;13829;48.990;8.346;2023-07-31T06:56:20;20.50;99.90
5055;DHT22;13829;48.990;8.346;2023-07-31T06:58:47;20.40;99.90
5055;DHT22;13829;48.990;8.346;2023-07-31T07:01:14;20.30;99.90
5055;DHT22;13829;48.990;8.346;2023-07-31T07:03:41;20.30;99.90
5055;DHT22;13829;48.990;8.346;2023-07-31T07:06:08;20.20;99.90
5055;DHT22;13829;48.990;8.346;2023-07-31T07:08:36;20.10;99.90
5055;DHT22;13829;48.990;8.346;2023-07-31T07:11:03;20.10;99.90
5055;DHT22;13829;48.990;8.346;2023-07-31T07:13:30;20.00;99.90
5055;DHT22;13829;48.990;8.346;2023-07-31T07:15:57;20.10;99.90
5055;DHT22;13829;48.990;8.346;2023-07-31T07:18:24;20.10;99.90
5055;DHT22;13829;48.990;8.346;2023-07-31T07:20:52;20.20;99.90
5055;DHT22;13829;48.990;8.346;2023-07-31T07:23:22;20.30;99.90
5055;DHT22;13829;48.990;8.346;2023-07-31T07:25:50;20.40;99.90
5055;DHT22;13829;48.990;8.346;2023-07-31T07:28:18;20.60;99.90
5055;DHT22;13829;48.990;8.346;2023-07-31T07:30:44;20.50;99.90
5055;DHT22;13829;48.990;8.346;2023-07-31T07:33:11;20.70;99.90
5055;DHT22;13829;48.990;8.346;2023-07-31T07:35:39;20.90;99.90
5055;DHT22;13829;48.990;8.346;2023-07-31T07:38:05;21.10;99.90
5055;DHT22;13829;48.990;8.346;2023-07-31T07:40:32;21.30;99.90
5055;DHT22;13829;48.990;8.346;2023-07-31T07:43:01;21.20;99.90
5055;DHT22;13829;48.990;8.346;2023-07-31T07:45:28;21.30;99.90
5055;DHT22;13829;48.990;8.346;2023-07-31T07:47:54;21.40;99.90
5055;DHT22;13829;48.990;8.346;2023-07-31T07:50:21;21.50;99.90
5055;DHT22;13829;48.990;8.346;2023-07-31T07:52:48;21.60;99.90
5055;DHT22;13829;48.990;8.346;2023-07-31T07:55:15;21.60;99.90
5055;DHT22;13829;48.990;8.346;2023-07-31T07:57:42;21.70;99.90
5055;DHT22;13829;48.990;8.346;2023-07-31T08:00:12;21.70;99.90
5055;DHT22;13829;48.990;8.346;2023-07-31T08:02:39;21.60;99.90
5055;DHT22;13829;48.990;8.346;2023-07-31T08:05:07;21.60;99.90
5055;DHT22;13829;48.990;8.346;2023-07-31T08:07:34;21.60;99.90
5055;DHT22;13829;48.990;8.346;2023-07-31T08:10:02;21.60;99.90
5055;DHT22;13829;48.990;8.346;2023-07-31T08:12:29;21.60;99.90
5055;DHT22;13829;48.990;8.346;2023-07-31T08:14:55;21.50;99.90
5055;DHT22;13829;48.990;8.346;2023-07-31T08:17:24;21.50;99.90
5055;DHT22;13829;48.990;8.346;2023-07-31T08:19:51;21.50;99.90
5055;DHT22;13829;48.990;8.346;2023-07-31T08:22:18;21.60;99.90
5055;DHT22;13829;48.990;8.346;2023-07-31T08:24:44;21.70;99.90
5055;DHT22;13829;48.990;8.346;2023-07-31T08:27:11;21.90;99.90
5055;DHT22;13829;48.990;8.346;2023-07-31T08:29:38;22.00;99.90
5055;DHT22;13829;48.990;8.346;2023-07-31T08:32:06;22.10;99.90
5055;DHT22;13829;48.990;8.346;2023-07-31T08:34:34;22.40;99.90
5055;DHT22;13829;48.990;8.346;2023-07-31T08:37:01;22.90;99.90
5055;DHT22;13829;48.990;8.346;2023-07-31T08:39:28;23.20;99.80
5055;DHT22;13829;48.990;8.346;2023-07-31T08:41:58;23.50;99.10
5055;DHT22;13829;48.990;8.346;2023-07-31T08:44:26;23.80;98.60
5055;DHT22;13829;48.990;8.346;2023-07-31T08:46:53;24.20;99.50
5055;DHT22;13829;48.990;8.346;2023-07-31T08:49:22;25.00;97.90
5055;DHT22;13829;48.990;8.346;2023-07-31T08:51:52;25.80;96.80
5055;DHT22;13829;48.990;8.346;2023-07-31T08:54:23;26.20;95.20
5055;DHT22;13829;48.990;8.346;2023-07-31T08:56:50;25.90;93.90
5055;DHT22;13829;48.990;8.346;2023-07-31T08:59:19;25.50;94.40
5055;DHT22;13829;48.990;8.346;2023-07-31T09:01:50;25.40;95.00
5055;DHT22;13829;48.990;8.346;2023-07-31T09:04:21;25.20;94.40
5055;DHT22;13829;48.990;8.346;2023-07-31T09:06:52;25.20;94.40
5055;DHT22;13829;48.990;8.346;2023-07-31T09:09:23;25.30;93.70
5055;DHT22;13829;48.990;8.346;2023-07-31T09:11:50;25.40;94.50
5055;DHT22;13829;48.990;8.346;2023-07-31T09:14:18;25.40;93.90
5055;DHT22;13829;48.990;8.346;2023-07-31T09:16:53;25.40;94.40
5055;DHT22;13829;48.990;8.346;2023-07-31T09:19:28;25.40;94.80
5055;DHT22;13829;48.990;8.346;2023-07-31T09:21:57;25.60;94.60
5055;DHT22;13829;48.990;8.346;2023-07-31T09:24:25;25.70;94.30
5055;DHT22;13829;48.990;8.346;2023-07-31T09:26:54;25.90;94.70
5055;DHT22;13829;48.990;8.346;2023-07-31T09:29:22;25.90;93.70
5055;DHT22;13829;48.990;8.346;2023-07-31T09:31:50;25.90;94.30
5055;DHT22;13829;48.990;8.346;2023-07-31T09:34:17;26.00;93.50
5055;DHT22;13829;48.990;8.346;2023-07-31T09:36:46;26.00;93.50
5055;DHT22;13829;48.990;8.346;2023-07-31T09:39:17;25.90;91.90
5055;DHT22;13829;48.990;8.346;2023-07-31T09:41:53;25.70;92.60
5055;DHT22;13829;48.990;8.346;2023-07-31T09:44:21;25.50;93.60
5055;DHT22;13829;48.990;8.346;2023-07-31T09:46:48;25.50;93.30
5055;DHT22;13829;48.990;8.346;2023-07-31T09:49:15;25.40;93.50
5055;DHT22;13829;48.990;8.346;2023-07-31T09:51:43;25.30;94.10
5055;DHT22;13829;48.990;8.346;2023-07-31T09:54:10;25.30;93.90
5055;DHT22;13829;48.990;8.346;2023-07-31T09:56:42;25.40;94.00
5055;DHT22;13829;48.990;8.346;2023-07-31T09:59:12;25.60;93.30
5055;DHT22;13829;48.990;8.346;2023-07-31T10:01:41;25.50;92.70
5055;DHT22;13829;48.990;8.346;2023-07-31T10:04:10;25.60;93.10
5055;DHT22;13829;48.990;8.346;2023-07-31T10:06:39;25.60;94.20
5055;DHT22;13829;48.990;8.346;2023-07-31T10:09:11;25.70;93.70
5055;DHT22;13829;48.990;8.346;2023-07-31T10:11:47;25.80;93.50
5055;DHT22;13829;48.990;8.346;2023-07-31T10:14:21;25.80;92.00
5055;DHT22;13829;48.990;8.346;2023-07-31T10:16:50;25.60;93.40
5055;DHT22;13829;48.990;8.346;2023-07-31T10:19:20;25.40;92.40
5055;DHT22;13829;48.990;8.346;2023-07-31T10:21:48;25.60;92.70
5055;DHT22;13829;48.990;8.346;2023-07-31T10:24:16;25.60;91.90
5055;DHT22;13829;48.990;8.346;2023-07-31T10:26:45;25.60;92.70
5055;DHT22;13829;48.990;8.346;2023-07-31T10:29:15;25.40;92.60
5055;DHT22;13829;48.990;8.346;2023-07-31T10:31:44;25.20;92.80
5055;DHT22;13829;48.990;8.346;2023-07-31T10:34:13;25.00;93.10
5055;DHT22;13829;48.990;8.346;2023-07-31T10:36:41;24.90;94.10
5055;DHT22;13829;48.990;8.346;2023-07-31T10:39:33;25.10;93.80
5055;DHT22;13829;48.990;8.346;2023-07-31T10:42:11;24.80;93.40
5055;DHT22;13829;48.990;8.346;2023-07-31T10:44:43;24.70;93.40
5055;DHT22;13829;48.990;8.346;2023-07-31T10:47:14;24.80;93.90
5055;DHT22;13829;48.990;8.346;2023-07-31T10:49:45;24.50;93.50
5055;DHT22;13829;48.990;8.346;2023-07-31T10:52:13;24.50;93.40
5055;DHT22;13829;48.990;8.346;2023-07-31T10:54:48;24.30;93.80
5055;DHT22;13829;48.990;8.346;2023-07-31T10:57:22;24.50;94.20
5055;DHT22;13829;48.990;8.346;2023-07-31T10:59:50;24.60;94.30
5055;DHT22;13829;48.990;8.346;2023-07-31T11:02:25;24.80;94.90
5055;DHT22;13829;48.990;8.346;2023-07-31T11:05:07;24.80;94.30
5055;DHT22;13829;48.990;8.346;2023-07-31T11:07:47;24.90;94.20
5055;DHT22;13829;48.990;8.346;2023-07-31T11:10:16;25.00;94.20
5055;DHT22;13829;48.990;8.346;2023-07-31T11:12:46;24.90;93.40
5055;DHT22;13829;48.990;8.346;2023-07-31T11:15:13;25.10;94.00
5055;DHT22;13829;48.990;8.346;2023-07-31T11:17:40;24.90;94.10
5055;DHT22;13829;48.990;8.346;2023-07-31T11:20:08;24.70;93.70
5055;DHT22;13829;48.990;8.346;2023-07-31T11:22:35;24.80;94.50
5055;DHT22;13829;48.990;8.346;2023-07-31T11:25:03;25.00;95.00
5055;DHT22;13829;48.990;8.346;2023-07-31T11:27:30;25.20;94.60
5055;DHT22;13829;48.990;8.346;2023-07-31T11:30:02;25.20;93.60
5055;DHT22;13829;48.990;8.346;2023-07-31T11:32:29;25.20;94.00
5055;DHT22;13829;48.990;8.346;2023-07-31T11:34:56;25.30;94.10
5055;DHT22;13829;48.990;8.346;2023-07-31T11:37:23;25.20;93.60
5055;DHT22;13829;48.990;8.346;2023-07-31T11:39:59;25.00;94.10
5055;DHT22;13829;48.990;8.346;2023-07-31T11:42:27;24.90;93.70
5055;DHT22;13829;48.990;8.346;2023-07-31T11:44:54;24.80;94.50
5055;DHT22;13829;48.990;8.346;2023-07-31T11:47:22;24.90;94.10
5055;DHT22;13829;48.990;8.346;2023-07-31T11:49:49;24.90;93.40
5055;DHT22;13829;48.990;8.346;2023-07-31T11:52:17;24.90;93.50
5055;DHT22;13829;48.990;8.346;2023-07-31T11:54:46;24.90;93.10
5055;DHT22;13829;48.990;8.346;2023-07-31T11:57:13;25.00;93.80
5055;DHT22;13829;48.990;8.346;2023-07-31T11:59:41;25.00;93.40
5055;DHT22;13829;48.990;8.346;2023-07-31T12:02:09;24.90;93.20
5055;DHT22;13829;48.990;8.346;2023-07-31T12:04:38;24.90;93.80
5055;DHT22;13829;48.990;8.346;2023-07-31T12:07:05;24.90;94.00
5055;DHT22;13829;48.990;8.346;2023-07-31T12:09:32;24.90;94.20
5055;DHT22;13829;48.990;8.346;2023-07-31T12:11:59;24.90;93.70
5055;DHT22;13829;48.990;8.346;2023-07-31T12:14:27;24.80;94.00
5055;DHT22;13829;48.990;8.346;2023-07-31T12:16:55;24.90;94.10
5055;DHT22;13829;48.990;8.346;2023-07-31T12:19:22;25.20;94.20
5055;DHT22;13829;48.990;8.346;2023-07-31T12:21:53;25.00;93.60
5055;DHT22;13829;48.990;8.346;2023-07-31T12:24:20;25.00;93.50
5055;DHT22;13829;48.990;8.346;2023-07-31T12:26:48;24.90;94.20
5055;DHT22;13829;48.990;8.346;2023-07-31T12:29:15;25.00;94.40
5055;DHT22;13829;48.990;8.346;2023-07-31T12:31:42;25.00;94.20
5055;DHT22;13829;48.990;8.346;2023-07-31T12:34:16;25.00;93.30
5055;DHT22;13829;48.990;8.346;2023-07-31T12:36:44;25.10;93.70
5055;DHT22;13829;48.990;8.346;2023-07-31T12:39:12;25.00;93.90
5055;DHT22;13829;48.990;8.346;2023-07-31T12:41:39;25.10;94.20
5055;DHT22;13829;48.990;8.346;2023-07-31T12:44:07;25.10;93.50
5055;DHT22;13829;48.990;8.346;2023-07-31T12:46:35;25.10;94.70
5055;DHT22;13829;48.990;8.346;2023-07-31T12:49:02;25.10;94.80
5055;DHT22;13829;48.990;8.346;2023-07-31T12:51:29;25.00;93.90
5055;DHT22;13829;48.990;8.346;2023-07-31T12:53:56;25.10;93.50
5055;DHT22;13829;48.990;8.346;2023-07-31T12:56:24;25.10;93.90
5055;DHT22;13829;48.990;8.346;2023-07-31T12:58:51;25.10;94.10
5055;DHT22;13829;48.990;8.346;2023-07-31T13:01:18;25.20;95.10
5055;DHT22;13829;48.990;8.346;2023-07-31T13:03:45;25.30;95.30
5055;DHT22;13829;48.990;8.346;2023-07-31T13:06:11;25.30;94.60
5055;DHT22;13829;48.990;8.346;2023-07-31T13:08:38;25.20;94.60
5055;DHT22;13829;48.990;8.346;2023-07-31T13:11:05;25.10;93.90
5055;DHT22;13829;48.990;8.346;2023-07-31T13:13:34;24.90;94.20
5055;DHT22;13829;48.990;8.346;2023-07-31T13:16:00;24.80;94.10
5055;DHT22;13829;48.990;8.346;2023-07-31T13:18:27;24.90;94.60
5055;DHT22;13829;48.990;8.346;2023-07-31T13:20:54;25.20;94.60
5055;DHT22;13829;48.990;8.346;2023-07-31T13:23:21;25.00;93.80
5055;DHT22;13829;48.990;8.346;2023-07-31T13:25:48;25.10;94.20
5055;DHT22;13829;48.990;8.346;2023-07-31T13:28:15;25.10;94.50
5055;DHT22;13829;48.990;8.346;2023-07-31T13:30:43;25.00;94.30
5055;DHT22;13829;48.990;8.346;2023-07-31T13:33:11;25.30;94.90
5055;DHT22;13829;48.990;8.346;2023-07-31T13:35:38;25.00;94.30
5055;DHT22;13829;48.990;8.346;2023-07-31T13:38:05;25.00;94.50
5055;DHT22;13829;48.990;8.346;2023-07-31T13:40:32;24.80;94.40
5055;DHT22;13829;48.990;8.346;2023-07-31T13:42:59;24.80;94.20
5055;DHT22;13829;48.990;8.346;2023-07-31T13:45:26;24.60;94.60
5055;DHT22;13829;48.990;8.346;2023-07-31T13:47:54;24.60;94.80
5055;DHT22;13829;48.990;8.346;2023-07-31T13:50:21;24.60;94.90
5055;DHT22;13829;48.990;8.346;2023-07-31T13:52:48;24.70;94.70
5055;DHT22;13829;48.990;8.346;2023-07-31T13:55:15;24.70;94.70
5055;DHT22;13829;48.990;8.346;2023-07-31T13:57:42;24.80;94.70
5055;DHT22;13829;48.990;8.346;2023-07-31T14:00:10;24.80;94.30
5055;DHT22;13829;48.990;8.346;2023-07-31T14:02:38;24.80;94.80
5055;DHT22;13829;48.990;8.346;2023-07-31T14:05:07;24.80;94.80
5055;DHT22;13829;48.990;8.346;2023-07-31T14:07:35;24.80;94.30
5055;DHT22;13829;48.990;8.346;2023-07-31T14:10:02;24.80;94.70
5055;DHT22;13829;48.990;8.346;2023-07-31T14:12:30;24.70;94.40
5055;DHT22;13829;48.990;8.346;2023-07-31T14:14:57;24.60;94.80
5055;DHT22;13829;48.990;8.346;2023-07-31T14:17:24;24.60;94.80
5055;DHT22;13829;48.990;8.346;2023-07-31T14:19:51;24.60;94.90
5055;DHT22;13829;48.990;8.346;2023-07-31T14:22:28;24.30;95.20
5055;DHT22;13829;48.990;8.346;2023-07-31T14:24:55;24.40;95.10
5055;DHT22;13829;48.990;8.346;2023-07-31T14:27:23;24.30;95.80
5055;DHT22;13829;48.990;8.346;2023-07-31T14:29:50;24.10;95.20
5055;DHT22;13829;48.990;8.346;2023-07-31T14:32:17;24.20;95.70
5055;DHT22;13829;48.990;8.346;2023-07-31T14:34:43;24.00;96.40
5055;DHT22;13829;48.990;8.346;2023-07-31T14:37:10;24.00;95.80
5055;DHT22;13829;48.990;8.346;2023-07-31T14:39:39;24.00;95.80
5055;DHT22;13829;48.990;8.346;2023-07-31T14:42:06;24.10;95.90
5055;DHT22;13829;48.990;8.346;2023-07-31T14:44:33;24.20;96.20
5055;DHT22;13829;48.990;8.346;2023-07-31T14:47:00;24.40;96.60
5055;DHT22;13829;48.990;8.346;2023-07-31T14:49:27;24.60;96.70
5055;DHT22;13829;48.990;8.346;2023-07-31T14:51:54;24.80;95.80
5055;DHT22;13829;48.990;8.346;2023-07-31T14:54:21;24.90;96.10
5055;DHT22;13829;48.990;8.346;2023-07-31T14:56:50;24.90;95.60
5055;DHT22;13829;48.990;8.346;2023-07-31T14:59:16;25.00;96.20
5055;DHT22;13829;48.990;8.346;2023-07-31T15:01:43;24.90;96.10
5055;DHT22;13829;48.990;8.346;2023-07-31T15:04:10;25.00;95.90
5055;DHT22;13829;48.990;8.346;2023-07-31T15:06:37;25.20;96.00
5055;DHT22;13829;48.990;8.346;2023-07-31T15:09:04;25.00;95.60
5055;DHT22;13829;48.990;8.346;2023-07-31T15:11:31;25.00;95.70
5055;DHT22;13829;48.990;8.346;2023-07-31T15:13:59;25.10;95.60
5055;DHT22;13829;48.990;8.346;2023-07-31T15:16:25;25.20;96.00
5055;DHT22;13829;48.990;8.346;2023-07-31T15:18:54;25.10;96.40
5055;DHT22;13829;48.990;8.346;2023-07-31T15:21:21;25.20;95.70
5055;DHT22;13829;48.990;8.346;2023-07-31T15:23:48;25.20;95.90
5055;DHT22;13829;48.990;8.346;2023-07-31T15:26:15;25.20;96.00
5055;DHT22;13829;48.990;8.346;2023-07-31T15:28:42;25.20;95.80
5055;DHT22;13829;48.990;8.346;2023-07-31T15:31:10;25.20;96.40
5055;DHT22;13829;48.990;8.346;2023-07-31T15:33:37;25.10;95.50
5055;DHT22;13829;48.990;8.346;2023-07-31T15:36:04;25.00;96.00
5055;DHT22;13829;48.990;8.346;2023-07-31T15:38:31;24.80;95.60
5055;DHT22;13829;48.990;8.346;2023-07-31T15:40:58;24.80;96.20
5055;DHT22;13829;48.990;8.346;2023-07-31T15:43:25;24.70;96.40
5055;DHT22;13829;48.990;8.346;2023-07-31T15:45:52;24.60;96.10
5055;DHT22;13829;48.990;8.346;2023-07-31T15:48:20;24.40;96.40
5055;DHT22;13829;48.990;8.346;2023-07-31T15:50:47;24.20;96.60